createdAt,value
2023-05-25T00:01:11.043Z,4.5
2023-05-25T00:03:16.896Z,4.3
2023-05-25T00:09:34.284Z,3.4
2023-05-25T00:11:40.086Z,3.1
2023-05-25T00:18:00.676Z,3.6
2023-05-25T00:20:06.495Z,4.2
2023-05-25T00:22:12.284Z,4.5
2023-05-25T00:24:18.092Z,4.2
2023-05-25T00:26:23.889Z,4
2023-05-25T00:28:29.685Z,3.3
2023-05-25T00:30:38.741Z,5
2023-05-25T00:32:44.455Z,5.2
2023-05-25T00:34:50.245Z,4.1
2023-05-25T00:35:54.674Z,4.8
2023-05-25T00:38:00.482Z,4.5
2023-05-25T00:40:06.251Z,4.4
2023-05-25T00:50:38.558Z,5
2023-05-25T01:07:28.073Z,4.8
2023-05-25T01:11:39.712Z,5.3
2023-05-25T01:18:00.285Z,5.2
2023-05-25T01:22:11.813Z,3.6
2023-05-25T01:26:23.432Z,4.6
2023-05-25T01:28:32.285Z,4.7
2023-05-25T01:30:38.097Z,5.2
2023-05-25T01:32:43.923Z,4.2
2023-05-25T01:35:15.449Z,5.1
2023-05-25T01:43:41.724Z,4.4
2023-05-25T01:52:04.919Z,5.4
2023-05-25T01:54:10.695Z,4.8
2023-05-25T01:56:19.560Z,4.4
2023-05-25T01:58:25.361Z,5
2023-05-25T02:02:36.964Z,5.1
2023-05-25T02:08:54.351Z,4.1
2023-05-25T02:11:03.199Z,5.4
2023-05-25T02:13:08.994Z,5.1
2023-05-25T02:23:37.956Z,4.6
2023-05-25T02:25:46.846Z,4.6
2023-05-25T02:27:52.668Z,5.3
2023-05-25T02:29:58.374Z,4.1
2023-05-25T02:33:10.211Z,4.1
2023-05-25T02:35:15.951Z,4.9
2023-05-25T02:37:21.731Z,4.2
2023-05-25T02:39:30.592Z,4.6
2023-05-25T02:43:42.120Z,5.3
2023-05-25T02:45:47.904Z,5.8
2023-05-25T02:52:05.248Z,6.2
2023-05-25T02:54:14.117Z,5.4
2023-05-25T02:56:19.899Z,5.9
2023-05-25T02:58:25.669Z,4.4
2023-05-25T03:08:57.667Z,6.3
2023-05-25T03:23:41.189Z,7.3
2023-05-25T03:28:57.179Z,7.5
2023-05-25T03:31:02.948Z,6.1
2023-05-25T03:33:08.773Z,5.5
2023-05-25T03:35:14.518Z,7.3
2023-05-25T03:37:23.362Z,5.7
2023-05-25T03:39:29.153Z,7
2023-05-25T03:41:34.939Z,6.9
2023-05-25T03:43:40.720Z,6.3
2023-05-25T03:45:46.623Z,7.1
2023-05-25T03:47:52.288Z,6.8
2023-05-25T03:52:06.885Z,6.4
2023-05-25T03:54:12.671Z,6.6
2023-05-25T03:56:18.472Z,7.6
2023-05-25T04:13:07.713Z,7.3
2023-05-25T04:17:19.284Z,7.1
2023-05-25T04:19:25.064Z,6.5
2023-05-25T04:21:33.873Z,8.6
2023-05-25T04:23:39.661Z,8.7
2023-05-25T04:25:45.600Z,8.3
2023-05-25T04:35:16.062Z,9.2
2023-05-25T04:41:33.426Z,8.6
2023-05-25T04:45:45.232Z,7
2023-05-25T04:52:05.420Z,8.1
2023-05-25T04:58:22.794Z,6.7
2023-05-25T05:00:28.596Z,11.4
2023-05-25T05:02:34.474Z,8.8
2023-05-25T05:06:49.051Z,7.8
2023-05-25T05:08:54.844Z,11.7
2023-05-25T05:19:26.924Z,7.7
2023-05-25T05:23:38.525Z,7.5
2023-05-25T05:26:10.123Z,7.4
2023-05-25T05:28:15.942Z,6.6
2023-05-25T05:30:21.784Z,7.8
2023-05-25T05:32:30.752Z,7.9
2023-05-25T05:34:36.495Z,6.9
2023-05-25T05:36:56.654Z,5.7
2023-05-25T05:38:48.104Z,6.3
2023-05-25T05:40:53.930Z,8.3
2023-05-25T05:53:31.906Z,7.5
2023-05-25T05:55:37.748Z,7.1
2023-05-25T05:57:43.519Z,5.7
2023-05-25T05:59:49.344Z,6.8
2023-05-25T06:01:58.186Z,7.1
2023-05-25T06:04:03.885Z,6
2023-05-25T06:06:09.801Z,7.1
2023-05-25T06:08:15.495Z,6.2
2023-05-25T06:10:21.232Z,6.8
2023-05-25T06:12:26.979Z,6.5
2023-05-25T06:14:32.736Z,6.3
2023-05-25T06:16:41.526Z,9.1
2023-05-25T06:18:47.235Z,5.4
2023-05-25T06:20:52.998Z,6.4
2023-05-25T06:21:57.348Z,5.9
2023-05-25T06:24:03.128Z,7.7
2023-05-25T06:26:08.885Z,6.8
2023-05-25T06:28:14.641Z,5.5
2023-05-25T06:30:23.379Z,6.2
2023-05-25T06:32:29.195Z,7.3
2023-05-25T06:34:37.326Z,5.6
2023-05-25T06:36:41.779Z,6.2
2023-05-25T06:42:57.987Z,5.2
2023-05-25T06:59:50.137Z,5.9
2023-05-25T07:01:56.020Z,6.2
2023-05-25T07:04:01.698Z,6.8
2023-05-25T07:06:07.477Z,6.4
2023-05-25T07:08:13.291Z,6.1
2023-05-25T07:10:19.053Z,4.9
2023-05-25T07:12:24.823Z,6
2023-05-25T07:14:33.577Z,8.1
2023-05-25T07:16:39.552Z,7
2023-05-25T07:18:45.146Z,6.8
2023-05-25T07:19:49.517Z,7.6
2023-05-25T07:21:55.322Z,6.3
2023-05-25T07:26:06.924Z,5.4
2023-05-25T07:28:15.671Z,7.6
2023-05-25T07:30:21.418Z,6.9
2023-05-25T07:32:27.239Z,7.3
2023-05-25T07:36:38.756Z,5.8
2023-05-25T07:38:44.541Z,7.4
2023-05-25T07:45:04.820Z,8.6
2023-05-25T07:49:16.459Z,5.7
2023-05-25T07:53:28.018Z,6.6
2023-05-25T07:57:42.509Z,5.6
2023-05-25T07:59:48.311Z,6
2023-05-25T08:01:54.120Z,5.5
2023-05-25T08:04:00.116Z,5.2
2023-05-25T08:06:05.684Z,7.7
2023-05-25T08:08:11.477Z,5
2023-05-25T08:10:17.274Z,4.7
2023-05-25T08:14:31.792Z,5.3
2023-05-25T08:16:37.637Z,4.3
2023-05-25T08:17:42.057Z,4.3
2023-05-25T08:26:20.323Z,4.6
2023-05-25T08:28:13.837Z,4.9
2023-05-25T08:32:25.403Z,3.8
2023-05-25T08:34:31.099Z,4
2023-05-25T08:36:38.469Z,4
2023-05-25T08:38:44.175Z,4
2023-05-25T08:53:27.271Z,2.5
2023-05-25T08:55:35.981Z,3.1
2023-05-25T08:57:41.695Z,3
2023-05-25T08:59:47.402Z,2.8
2023-05-25T09:01:53.173Z,3
2023-05-25T09:03:58.935Z,3
2023-05-25T09:06:04.585Z,2.2
2023-05-25T09:08:10.325Z,3.6
2023-05-25T09:14:30.474Z,2.3
2023-05-25T09:17:01.700Z,3.1
2023-05-25T09:19:07.455Z,2.9
2023-05-25T09:21:13.116Z,1.8
2023-05-25T09:23:21.842Z,2.2
2023-05-25T09:25:27.615Z,2.8
2023-05-25T09:27:33.383Z,3.8
2023-05-25T09:29:39.110Z,1.6
2023-05-25T09:31:44.921Z,2.6
2023-05-25T09:33:50.600Z,3.3
2023-05-25T09:35:56.324Z,3.6
2023-05-25T09:38:05.263Z,3.7
2023-05-25T09:46:28.048Z,2.6
2023-05-25T09:48:33.752Z,2
2023-05-25T09:50:39.466Z,2.4
2023-05-25T10:03:17.439Z,2.5
2023-05-25T10:05:23.191Z,1.8
2023-05-25T10:07:31.928Z,2.3
2023-05-25T10:11:43.397Z,2.3
2023-05-25T10:12:47.773Z,2.3
2023-05-25T10:14:53.548Z,2
2023-05-25T10:16:59.309Z,1.7
2023-05-25T10:19:05.050Z,2.1
2023-05-25T10:21:13.769Z,2
2023-05-25T10:23:19.539Z,2.9
2023-05-25T10:25:25.306Z,3
2023-05-25T10:27:31.085Z,2.2
2023-05-25T10:29:36.832Z,1.7
2023-05-25T10:33:51.991Z,2.6
2023-05-25T10:38:02.953Z,2.2
2023-05-25T10:40:08.731Z,1.5
2023-05-25T10:42:14.493Z,2.5
2023-05-25T10:44:20.274Z,2.8
2023-05-25T10:46:26.065Z,3.1
2023-05-25T10:48:31.802Z,2
2023-05-25T10:50:40.578Z,2.2
2023-05-25T10:52:46.340Z,3.6
2023-05-25T10:54:52.122Z,1.7
2023-05-25T10:56:57.916Z,2.8
2023-05-25T10:59:03.694Z,1.9
2023-05-25T11:01:09.557Z,4
2023-05-25T11:05:24.000Z,3.3
2023-05-25T11:07:29.730Z,2.4
2023-05-25T11:09:35.542Z,2.1
2023-05-25T11:10:39.956Z,2.7
2023-05-25T11:14:51.544Z,2
2023-05-25T11:16:57.326Z,2.3
2023-05-25T11:19:06.080Z,4
2023-05-25T11:21:11.823Z,3
2023-05-25T11:23:17.614Z,1.8
2023-05-25T11:25:23.413Z,2.6
2023-05-25T11:27:29.144Z,2
2023-05-25T11:29:34.957Z,2.2
2023-05-25T11:31:43.378Z,3.2
2023-05-25T11:38:01.050Z,5.7
2023-05-25T11:40:06.840Z,2.6
2023-05-25T11:48:32.937Z,4.1
2023-05-25T11:50:38.713Z,2.4
2023-05-25T11:52:44.485Z,2.5
2023-05-25T11:54:50.259Z,3.5
2023-05-25T11:56:56.041Z,3.2
2023-05-25T12:01:07.594Z,2.8
2023-05-25T12:03:16.427Z,2.8
2023-05-25T12:05:22.178Z,2.7
2023-05-25T12:08:32.274Z,2
2023-05-25T12:10:38.054Z,3.3
2023-05-25T12:12:43.843Z,2.6
2023-05-25T12:19:04.242Z,2.3
2023-05-25T12:23:15.763Z,4.7
2023-05-25T12:25:21.675Z,3.7
2023-05-25T12:27:27.342Z,3.5
2023-05-25T12:29:33.124Z,3
2023-05-25T12:31:41.894Z,3.1
2023-05-25T12:33:47.684Z,2.7
2023-05-25T12:35:53.447Z,2.6
2023-05-25T12:37:59.222Z,2.7
2023-05-25T12:42:10.808Z,2.8
2023-05-25T12:46:25.431Z,1.7
2023-05-25T12:48:31.146Z,3
2023-05-25T12:50:37.417Z,3.1
2023-05-25T12:52:42.690Z,2.5
2023-05-25T12:54:48.451Z,3
2023-05-25T12:56:54.277Z,3.6
2023-05-25T12:59:00.086Z,2.8
2023-05-25T13:01:08.873Z,3.9
2023-05-25T13:03:14.627Z,3
2023-05-25T13:07:51.675Z,2.4
2023-05-25T13:09:57.498Z,3.1
2023-05-25T13:12:03.234Z,4.3
2023-05-25T13:14:11.975Z,4.6
2023-05-25T13:18:23.530Z,3.3
2023-05-25T13:20:29.477Z,4.4
2023-05-25T13:22:35.117Z,3.3
2023-05-25T13:24:40.898Z,4.4
2023-05-25T13:28:55.426Z,2.9
2023-05-25T13:31:01.209Z,4.1
2023-05-25T13:33:07.062Z,4.8
2023-05-25T13:35:12.811Z,4.4
2023-05-25T13:45:44.995Z,6.3
2023-05-25T13:47:50.766Z,4.5
2023-05-25T13:52:02.093Z,4.4
2023-05-25T13:54:07.875Z,2.8
2023-05-25T13:56:13.635Z,3.5
2023-05-25T13:58:22.389Z,2.9
2023-05-25T14:00:28.172Z,2.7
2023-05-25T14:03:38.466Z,5.1
2023-05-25T14:05:44.346Z,3.8
2023-05-25T14:20:27.634Z,3.8
2023-05-25T14:35:11.129Z,4.8
2023-05-25T14:39:24.302Z,3.6
2023-05-25T14:41:32.990Z,4
2023-05-25T14:43:38.777Z,3.9
2023-05-25T14:45:44.764Z,3.5
2023-05-25T14:47:51.999Z,3.5
2023-05-25T14:49:56.138Z,4.2
2023-05-25T14:52:01.966Z,4
2023-05-25T14:54:07.855Z,3.3
2023-05-25T14:58:22.291Z,3.7
2023-05-25T15:01:32.482Z,6
2023-05-25T15:03:38.347Z,4.1
2023-05-25T15:07:49.785Z,4.9
2023-05-25T15:22:33.274Z,2.8
2023-05-25T15:24:42.021Z,5.2
2023-05-25T15:26:47.837Z,4.9
2023-05-25T15:31:00.850Z,4.7
2023-05-25T15:33:05.280Z,2.6
2023-05-25T15:35:11.007Z,4.9
2023-05-25T15:37:16.816Z,5.6
2023-05-25T15:39:25.576Z,2.3
2023-05-25T15:41:31.369Z,4.3
2023-05-25T15:43:37.126Z,4.9
2023-05-25T15:52:00.324Z,3.2
2023-05-25T15:54:10.466Z,3
2023-05-25T15:56:14.869Z,4.7
2023-05-25T15:58:20.671Z,3.8
2023-05-25T15:59:25.035Z,4.2
2023-05-25T16:01:30.929Z,4.6
2023-05-25T16:05:42.557Z,4.3
2023-05-25T16:07:51.228Z,6.2
2023-05-25T16:12:02.776Z,3.2
2023-05-25T16:14:08.565Z,3.7
2023-05-25T16:18:20.199Z,4.8
2023-05-25T16:20:26.004Z,5.3
2023-05-25T16:22:34.734Z,4.1
2023-05-25T16:24:40.524Z,3.9
2023-05-25T16:26:46.326Z,3.7
2023-05-25T16:28:52.142Z,2.9
2023-05-25T16:37:18.284Z,4.7
2023-05-25T16:47:47.265Z,4.3
2023-05-25T16:49:53.011Z,4
2023-05-25T16:52:01.783Z,4.3
2023-05-25T16:54:07.563Z,6.2
2023-05-25T16:56:13.335Z,5.2
2023-05-25T16:58:44.606Z,5.1
2023-05-25T17:00:50.417Z,4.3
2023-05-25T17:02:56.322Z,5.9
2023-05-25T17:05:04.993Z,5.6
2023-05-25T17:07:10.792Z,4.6
2023-05-25T17:09:16.562Z,4.1
2023-05-25T17:11:22.365Z,4.4
2023-05-25T17:13:28.180Z,4.9
2023-05-25T17:15:33.971Z,5.7
2023-05-25T17:17:39.840Z,5.8
2023-05-25T17:21:54.336Z,5.3
2023-05-25T17:24:00.157Z,3.7
2023-05-25T17:26:05.952Z,5.7
2023-05-25T17:28:11.720Z,5.4
2023-05-25T17:30:17.504Z,4.7
2023-05-25T17:34:32.049Z,4
2023-05-25T17:36:37.894Z,6
2023-05-25T17:38:43.728Z,6.5
2023-05-25T17:40:50.326Z,4.9
2023-05-25T17:45:01.027Z,4.8
2023-05-25T17:47:08.317Z,6.6
2023-05-25T17:53:27.159Z,4.3
2023-05-25T17:54:31.551Z,5.6
2023-05-25T17:58:43.109Z,4.3
2023-05-25T18:00:49.069Z,4
2023-05-25T18:02:57.729Z,3.8
2023-05-25T18:07:09.273Z,6.4
2023-05-25T18:09:15.046Z,9.3
2023-05-25T18:30:15.983Z,7.6
2023-05-25T18:32:24.787Z,7.5
2023-05-25T18:34:30.558Z,10.5
2023-05-25T18:36:36.366Z,7.6
2023-05-25T18:38:42.151Z,8.6
2023-05-25T18:40:47.942Z,6.8
2023-05-25T18:42:53.743Z,9.3
2023-05-25T18:44:59.534Z,7.8
2023-05-25T18:47:08.298Z,8.1
2023-05-25T18:49:14.093Z,4.9
2023-05-25T18:51:19.846Z,5.8
2023-05-25T18:52:24.244Z,5.5
2023-05-25T18:56:35.824Z,5
2023-05-25T19:00:50.404Z,5.7
2023-05-25T19:02:56.258Z,5.5
2023-05-25T19:05:01.981Z,5.2
2023-05-25T19:09:13.609Z,5.4
2023-05-25T19:11:19.314Z,4.4
2023-05-25T19:13:25.120Z,5.2
2023-05-25T19:15:33.913Z,7.4
2023-05-25T19:17:39.711Z,6.5
2023-05-25T19:19:45.490Z,4.5
2023-05-25T19:26:02.864Z,4.7
2023-05-25T19:28:08.659Z,4.2
2023-05-25T19:30:17.430Z,4.5
2023-05-25T19:32:23.238Z,5.6
2023-05-25T19:34:28.971Z,5.9
2023-05-25T19:36:34.743Z,4.1
2023-05-25T19:40:46.363Z,4.7
2023-05-25T19:47:06.745Z,5
2023-05-25T19:49:12.444Z,5.7
2023-05-25T19:50:16.848Z,7
2023-05-25T20:00:48.721Z,4.6
2023-05-25T20:02:54.699Z,4.2
2023-05-25T20:05:00.326Z,5.6
2023-05-25T20:07:06.161Z,4.2
2023-05-25T20:09:11.850Z,4.8
2023-05-25T20:11:17.640Z,5
2023-05-25T20:13:26.410Z,6
2023-05-25T20:17:37.961Z,5.2
2023-05-25T20:19:43.750Z,5.5
2023-05-25T20:26:01.105Z,5.9
2023-05-25T20:28:09.839Z,4.8
2023-05-25T20:30:15.825Z,4.9
2023-05-25T20:32:21.480Z,5.6
2023-05-25T20:34:27.202Z,4.5
2023-05-25T20:36:32.960Z,4
2023-05-25T20:38:38.730Z,5.6
2023-05-25T20:40:44.492Z,5.7
2023-05-25T20:45:00.625Z,5.9
2023-05-25T20:47:06.379Z,3.4
2023-05-25T20:49:37.744Z,5.6
2023-05-25T20:51:43.528Z,4.7
2023-05-25T20:53:49.279Z,3.9
2023-05-25T21:04:21.091Z,6.6
2023-05-25T21:06:26.874Z,4.3
2023-05-25T21:08:32.650Z,4.3
2023-05-25T21:10:41.397Z,8.9
2023-05-25T21:12:47.148Z,4.1
2023-05-25T21:21:10.219Z,3.7
2023-05-25T21:23:16.072Z,4.8
2023-05-25T21:31:42.293Z,5.7
2023-05-25T21:35:53.888Z,5.1
2023-05-25T21:37:59.660Z,4.8
2023-05-25T21:40:08.501Z,5.7
2023-05-25T21:42:14.236Z,7.1
2023-05-25T21:45:24.580Z,4
2023-05-25T21:49:36.269Z,4
2023-05-25T21:51:42.111Z,3.7
2023-05-25T21:55:56.912Z,7.7
2023-05-25T21:58:02.681Z,5.2
2023-05-25T22:02:14.423Z,4
2023-05-25T22:06:26.056Z,5.3
2023-05-25T22:08:34.982Z,7.1
2023-05-25T22:10:40.888Z,5.6
2023-05-25T22:12:46.708Z,7.3
2023-05-25T22:14:52.571Z,6.9
2023-05-25T22:16:58.480Z,5.1
2023-05-25T22:19:04.241Z,7.1
2023-05-25T22:21:10.087Z,7.9
2023-05-25T22:23:19.040Z,5.8
2023-05-25T22:33:48.202Z,4.6
2023-05-25T22:35:54.055Z,6.8
2023-05-25T22:38:02.968Z,7.4
2023-05-25T22:42:14.640Z,5.3
2023-05-25T22:45:24.918Z,7.4
2023-05-25T22:47:30.801Z,6.5
2023-05-25T22:49:37.704Z,4.4
2023-05-25T22:51:45.489Z,4.7
2023-05-25T22:53:51.342Z,5.8
2023-05-25T22:55:57.183Z,5.4
2023-05-25T23:02:14.697Z,4.3
2023-05-25T23:04:20.567Z,6.7
2023-05-25T23:08:35.195Z,7.6
2023-05-25T23:10:41.018Z,6.3
2023-05-25T23:12:46.871Z,5.1
2023-05-25T23:16:58.490Z,6.2
2023-05-25T23:19:04.290Z,6.5
2023-05-25T23:21:13.183Z,5
2023-05-25T23:25:24.825Z,4
2023-05-25T23:27:30.638Z,4.6
2023-05-25T23:29:36.458Z,5.6
2023-05-25T23:31:42.341Z,6.8
2023-05-25T23:33:48.113Z,6.2
2023-05-25T23:41:13.082Z,8
2023-05-25T23:43:18.905Z,6.1
2023-05-25T23:45:24.731Z,4.6
2023-05-25T23:47:30.607Z,6.1
2023-05-25T23:53:51.077Z,6.5
2023-05-25T23:58:02.710Z,6
